createdAt,value
2023-03-15T00:04:33.465Z,1.90
2023-03-15T00:09:37.109Z,3.12
2023-03-15T00:14:41.044Z,3.19
2023-03-15T00:19:48.093Z,0.72
2023-03-15T00:24:51.903Z,3.25
2023-03-15T00:29:55.521Z,3.27
2023-03-15T00:35:01.842Z,2.77
2023-03-15T00:40:07.444Z,1.81
2023-03-15T00:45:11.532Z,3.35
2023-03-15T00:50:17.024Z,3.49
2023-03-15T00:55:21.798Z,3.01
2023-03-15T01:00:26.075Z,2.59
2023-03-15T01:05:31.338Z,3.01
2023-03-15T01:10:36.324Z,2.42
2023-03-15T01:15:39.913Z,3.26
2023-03-15T01:20:46.084Z,3.45
2023-03-15T01:25:49.983Z,3.15
2023-03-15T01:30:54.424Z,1.60
2023-03-15T01:36:05.213Z,2.90
2023-03-15T01:41:12.125Z,2.78
2023-03-15T01:46:23.619Z,2.70
2023-03-15T01:51:34.549Z,-0.08
2023-03-15T01:56:43.069Z,0.92
2023-03-15T02:01:50.813Z,2.37
2023-03-15T02:07:01.973Z,2.31
2023-03-15T02:12:11.934Z,1.12
2023-03-15T02:17:15.780Z,2.09
2023-03-15T02:22:32.021Z,2.05
2023-03-15T02:27:38.427Z,1.75
2023-03-15T02:32:45.510Z,2.27
2023-03-15T02:37:49.160Z,2.12
2023-03-15T02:42:58.687Z,0.66
2023-03-15T02:48:04.006Z,2.67
2023-03-15T02:53:31.643Z,2.72
2023-03-15T02:58:36.714Z,2.83
2023-03-15T03:03:40.747Z,2.27
2023-03-15T03:08:47.045Z,2.12
2023-03-15T03:13:54.530Z,2.75
2023-03-15T03:18:58.589Z,2.94
2023-03-15T03:24:05.095Z,2.38
2023-03-15T03:29:10.166Z,2.51
2023-03-15T03:34:15.743Z,2.69
2023-03-15T03:39:19.555Z,2.64
2023-03-15T03:44:24.705Z,2.75
2023-03-15T03:49:28.961Z,2.85
2023-03-15T03:54:33.287Z,2.58
2023-03-15T03:59:38.580Z,3.00
2023-03-15T04:04:42.800Z,2.99
2023-03-15T04:09:53.057Z,2.97
2023-03-15T04:14:59.242Z,0.75
2023-03-15T04:20:12.191Z,3.00
2023-03-15T04:25:21.125Z,2.94
2023-03-15T04:30:34.004Z,2.13
2023-03-15T04:35:52.819Z,2.88
2023-03-15T04:41:11.265Z,2.84
2023-03-15T04:46:26.039Z,2.83
2023-03-15T04:51:58.675Z,2.65
2023-03-15T04:57:11.342Z,1.88
2023-03-15T05:02:26.774Z,1.97
2023-03-15T05:07:51.798Z,1.06
2023-03-15T05:13:25.509Z,0.50
2023-03-15T05:18:57.665Z,2.09
2023-03-15T05:24:19.483Z,0.89
2023-03-15T05:29:49.776Z,0.59
2023-03-15T05:35:16.397Z,-0.79
2023-03-15T05:40:43.320Z,0.53
2023-03-15T05:46:15.504Z,1.42
2023-03-15T05:51:46.697Z,1.34
2023-03-15T05:57:13.660Z,2.14
2023-03-15T06:02:32.384Z,0.93
2023-03-15T06:07:53.826Z,2.15
2023-03-15T06:13:01.606Z,1.39
2023-03-15T06:18:09.715Z,0.73
2023-03-15T06:23:17.629Z,0.70
2023-03-15T06:28:26.720Z,1.10
2023-03-15T06:33:36.877Z,0.57
2023-03-15T06:38:42.472Z,1.26
2023-03-15T06:43:52.386Z,1.48
2023-03-15T06:48:56.542Z,2.51
2023-03-15T06:54:02.264Z,-1.07
2023-03-15T06:59:08.387Z,1.40
2023-03-15T07:04:15.468Z,-0.36
2023-03-15T07:09:23.988Z,-0.41
2023-03-15T07:14:30.480Z,2.38
2023-03-15T07:19:41.443Z,1.77
2023-03-15T07:24:54.971Z,2.65
2023-03-15T07:29:58.967Z,3.29
2023-03-15T07:35:03.080Z,3.22
2023-03-15T07:40:10.834Z,0.28
2023-03-15T07:45:17.048Z,3.58
2023-03-15T07:50:23.905Z,3.17
2023-03-15T07:55:28.942Z,3.36
2023-03-15T08:00:33.363Z,3.68
2023-03-15T08:05:37.846Z,3.91
2023-03-15T08:10:43.261Z,4.03
2023-03-15T08:15:47.646Z,4.16
2023-03-15T08:20:52.288Z,4.23
2023-03-15T08:25:59.127Z,2.47
2023-03-15T08:31:04.847Z,4.31
2023-03-15T08:36:08.942Z,4.11
2023-03-15T08:41:14.174Z,4.42
2023-03-15T08:46:18.303Z,4.52
2023-03-15T08:51:22.465Z,4.79
2023-03-15T08:56:27.613Z,5.26
2023-03-15T09:01:31.498Z,5.33
2023-03-15T09:06:35.441Z,5.21
2023-03-15T09:11:40.631Z,2.98
2023-03-15T09:16:45.852Z,5.25
2023-03-15T09:21:49.532Z,5.83
2023-03-15T09:26:54.689Z,3.79
2023-03-15T09:31:58.461Z,5.80
2023-03-15T09:37:01.960Z,5.92
2023-03-15T09:42:17.704Z,4.17
2023-03-15T09:47:33.615Z,5.69
2023-03-15T09:52:43.941Z,6.18
2023-03-15T09:57:55.647Z,5.93
2023-03-15T10:03:03.885Z,6.21
2023-03-15T10:08:12.869Z,6.77
2023-03-15T10:13:32.660Z,6.61
2023-03-15T10:18:57.928Z,6.73
2023-03-15T10:24:05.697Z,6.21
2023-03-15T10:29:22.953Z,7.35
2023-03-15T10:34:30.157Z,7.76
2023-03-15T10:39:34.054Z,8.00
2023-03-15T10:44:39.551Z,8.22
2023-03-15T10:49:45.738Z,8.32
2023-03-15T10:54:58.721Z,7.85
2023-03-15T11:00:25.007Z,6.85
2023-03-15T11:05:33.266Z,7.40
2023-03-15T11:10:38.018Z,7.69
2023-03-15T11:15:54.481Z,7.82
2023-03-15T11:20:59.295Z,7.67
2023-03-15T11:26:03.619Z,7.66
2023-03-15T11:31:09.177Z,7.54
2023-03-15T11:36:18.608Z,7.63
2023-03-15T11:41:29.217Z,6.94
2023-03-15T11:46:40.778Z,7.54
2023-03-15T11:51:45.184Z,7.39
2023-03-15T11:56:55.528Z,7.38
2023-03-15T12:02:40.684Z,6.87
2023-03-15T12:08:16.908Z,7.13
2023-03-15T12:13:31.538Z,6.87
2023-03-15T12:18:48.731Z,5.76
2023-03-15T12:24:03.975Z,6.05
2023-03-15T12:29:14.306Z,7.28
2023-03-15T12:34:28.247Z,5.34
2023-03-15T12:39:47.272Z,7.12
2023-03-15T12:44:51.215Z,6.80
2023-03-15T12:49:57.279Z,6.75
2023-03-15T12:55:07.035Z,6.55
2023-03-15T13:00:15.923Z,4.02
2023-03-15T13:05:25.382Z,5.39
2023-03-15T13:10:55.863Z,6.12
2023-03-15T13:16:15.509Z,5.83
2023-03-15T13:21:25.785Z,5.98
2023-03-15T13:26:43.089Z,6.06
2023-03-15T13:31:47.884Z,6.49
2023-03-15T13:36:57.294Z,5.92
2023-03-15T13:42:02.597Z,6.45
2023-03-15T13:47:06.452Z,3.97
2023-03-15T13:52:14.812Z,5.13
2023-03-15T13:57:22.324Z,6.44
2023-03-15T14:02:34.879Z,6.41
2023-03-15T14:07:41.889Z,5.92
2023-03-15T14:12:49.035Z,7.38
2023-03-15T14:17:55.800Z,7.12
2023-03-15T14:23:03.121Z,6.85
2023-03-15T14:28:16.146Z,7.56
2023-03-15T14:33:31.614Z,7.61
2023-03-15T14:38:38.946Z,6.23
2023-03-15T14:43:42.725Z,6.41
2023-03-15T14:48:47.355Z,4.20
2023-03-15T14:53:57.800Z,5.57
2023-03-15T14:59:05.205Z,4.62
2023-03-15T15:04:15.016Z,5.75
2023-03-15T15:09:23.086Z,5.71
2023-03-15T15:14:29.776Z,5.98
2023-03-15T15:19:33.688Z,5.98
2023-03-15T15:24:39.180Z,5.95
2023-03-15T15:29:47.749Z,5.85
2023-03-15T15:34:55.165Z,3.93
2023-03-15T15:40:00.895Z,4.52
2023-03-15T15:45:10.820Z,5.39
2023-03-15T15:50:16.747Z,5.35
2023-03-15T15:55:24.856Z,5.56
2023-03-15T16:00:34.286Z,4.28
2023-03-15T16:05:39.629Z,5.30
2023-03-15T16:10:46.195Z,4.68
2023-03-15T16:15:49.944Z,5.57
2023-03-15T16:20:53.608Z,5.64
2023-03-15T16:25:58.897Z,5.26
2023-03-15T16:31:03.343Z,5.39
2023-03-15T16:36:07.630Z,5.75
2023-03-15T16:41:14.614Z,6.03
2023-03-15T16:46:19.091Z,6.09
2023-03-15T16:51:23.715Z,6.16
2023-03-15T16:56:33.550Z,6.07
2023-03-15T17:01:37.197Z,6.38
2023-03-15T17:06:40.848Z,6.15
2023-03-15T17:11:48.905Z,5.24
2023-03-15T17:16:52.956Z,6.05
2023-03-15T17:21:56.562Z,6.07
2023-03-15T17:27:01.698Z,5.73
2023-03-15T17:32:05.746Z,6.14
2023-03-15T17:37:10.339Z,4.52
2023-03-15T17:42:16.324Z,5.75
2023-03-15T17:47:20.276Z,6.11
2023-03-15T17:52:25.229Z,6.02
2023-03-15T17:57:30.302Z,4.72
2023-03-15T18:02:34.516Z,6.07
2023-03-15T18:07:43.511Z,5.76
2023-03-15T18:12:51.840Z,6.02
2023-03-15T18:17:55.653Z,5.54
2023-03-15T18:22:59.238Z,5.88
2023-03-15T18:28:04.636Z,5.12
2023-03-15T18:33:08.730Z,5.76
2023-03-15T18:38:12.996Z,5.73
2023-03-15T18:43:18.127Z,5.70
2023-03-15T18:48:34.215Z,4.10
2023-03-15T18:53:44.888Z,5.19
2023-03-15T18:58:51.268Z,3.95
2023-03-15T19:03:55.732Z,5.36
2023-03-15T19:08:59.995Z,3.82
2023-03-15T19:14:05.198Z,4.13
2023-03-15T19:19:08.792Z,4.64
2023-03-15T19:24:12.419Z,3.77
2023-03-15T19:29:17.507Z,4.32
2023-03-15T19:34:21.175Z,5.04
2023-03-15T19:39:27.193Z,3.17
2023-03-15T19:44:33.551Z,4.77
2023-03-15T19:49:43.861Z,4.92
2023-03-15T19:55:02.023Z,4.75
2023-03-15T20:00:12.639Z,4.57
2023-03-15T20:05:18.323Z,4.83
2023-03-15T20:10:22.636Z,3.19
2023-03-15T20:15:29.385Z,4.29
2023-03-15T20:20:33.096Z,4.17
2023-03-15T20:25:37.089Z,3.59
2023-03-15T20:30:44.318Z,3.98
2023-03-15T20:35:48.255Z,3.90
2023-03-15T20:40:54.863Z,3.59
2023-03-15T20:46:01.211Z,2.32
2023-03-15T20:51:05.712Z,4.36
2023-03-15T20:56:09.973Z,3.54
2023-03-15T21:01:16.924Z,4.12
2023-03-15T21:06:21.059Z,3.95
2023-03-15T21:11:24.769Z,3.80
2023-03-15T21:16:29.857Z,3.61
2023-03-15T21:21:33.643Z,3.70
2023-03-15T21:26:38.009Z,3.21
2023-03-15T21:31:43.139Z,3.90
2023-03-15T21:36:46.737Z,3.52
2023-03-15T21:41:50.819Z,3.75
2023-03-15T21:46:57.670Z,3.70
2023-03-15T21:52:02.552Z,2.44
2023-03-15T21:57:06.194Z,1.37
2023-03-15T22:02:14.322Z,2.04
2023-03-15T22:07:18.100Z,3.54
2023-03-15T22:12:21.774Z,2.39
2023-03-15T22:17:29.079Z,3.06
2023-03-15T22:22:32.909Z,3.44
2023-03-15T22:27:36.558Z,3.42
2023-03-15T22:32:44.414Z,1.74
2023-03-15T22:37:49.415Z,2.99
2023-03-15T22:42:53.985Z,3.27
2023-03-15T22:47:58.919Z,1.24
2023-03-15T22:53:02.621Z,2.18
2023-03-15T22:58:06.135Z,2.19
2023-03-15T23:03:11.365Z,2.18
2023-03-15T23:08:14.990Z,3.08
2023-03-15T23:13:18.718Z,3.07
2023-03-15T23:18:28.041Z,2.79
2023-03-15T23:23:32.177Z,1.48
2023-03-15T23:28:36.595Z,2.67
2023-03-15T23:33:41.859Z,2.58
2023-03-15T23:38:45.654Z,2.43
2023-03-15T23:43:49.340Z,2.88
2023-03-15T23:48:54.373Z,2.86
2023-03-15T23:53:58.176Z,2.78
2023-03-15T23:59:01.978Z,1.10
